createdAt,value
2019-01-19T04:30:51.456Z,21.89
2019-01-19T04:42:51.311Z,21.29
2019-01-19T04:44:51.298Z,23.20
2019-01-19T07:29:50.540Z,14.00
2019-01-19T08:44:14.582Z,10.39
2019-01-19T09:41:13.995Z,10.19
2019-01-19T09:46:13.953Z,7.80
2019-01-19T09:49:13.918Z,11.19
2019-01-19T09:59:38.706Z,7.50
2019-01-19T10:00:45.400Z,7.40
2019-01-19T10:02:03.669Z,8.19
2019-01-19T10:03:03.648Z,8.80
2019-01-19T10:04:03.653Z,7.80
2019-01-19T10:05:03.634Z,6.69
2019-01-19T10:06:03.632Z,8.19
2019-01-19T10:07:03.619Z,9.80
2019-01-19T10:08:03.618Z,7.30
2019-01-19T10:09:03.599Z,9.69
2019-01-19T10:10:03.592Z,8.10
2019-01-19T10:11:03.574Z,8.19
2019-01-19T10:12:03.557Z,6.59
2019-01-19T10:13:03.546Z,7.09
2019-01-19T10:14:04.216Z,7.40
2019-01-19T10:15:03.539Z,6.80
2019-01-19T10:16:03.520Z,7.09
2019-01-19T10:17:03.511Z,8.19
2019-01-19T10:18:03.496Z,8.10
2019-01-19T10:19:03.489Z,8.50
2019-01-19T10:20:03.489Z,7.09
2019-01-19T10:21:03.503Z,8.19
2019-01-19T10:22:03.485Z,8.30
2019-01-19T10:23:03.447Z,6.80
2019-01-19T10:24:03.448Z,5.90
2019-01-19T10:25:03.425Z,7.09
2019-01-19T10:26:03.418Z,6.90
2019-01-19T10:27:03.447Z,6.69
2019-01-19T10:28:03.394Z,6.09
2019-01-19T10:29:03.387Z,8.89
2019-01-19T10:30:03.373Z,7.00
2019-01-19T10:31:03.358Z,7.09
2019-01-19T10:32:03.366Z,9.00
2019-01-19T10:33:03.354Z,6.69
2019-01-19T10:34:03.340Z,6.69
2019-01-19T10:35:03.320Z,7.09
2019-01-19T10:36:03.363Z,6.19
2019-01-19T10:37:03.305Z,5.69
2019-01-19T10:38:03.297Z,6.00
2019-01-19T10:39:03.291Z,6.69
2019-01-19T10:40:03.292Z,7.80
2019-01-19T10:41:03.267Z,7.19
2019-01-19T10:42:03.323Z,5.50
2019-01-19T10:43:03.246Z,6.80
2019-01-19T10:44:03.223Z,6.59
2019-01-19T10:53:36.229Z,6.00
2019-01-19T10:53:36.332Z,5.30
2019-01-19T10:53:36.348Z,7.00
2019-01-19T10:54:28.718Z,8.39
2019-01-19T10:55:28.763Z,7.19
2019-01-19T10:56:28.683Z,6.19
2019-01-19T10:57:28.673Z,7.19
2019-01-19T10:58:28.668Z,6.00
2019-01-19T10:59:28.660Z,7.59
2019-01-19T11:00:28.642Z,6.40
2019-01-19T11:01:28.673Z,7.00
2019-01-19T11:02:28.653Z,5.80
2019-01-19T11:03:28.610Z,5.40
2019-01-19T11:04:28.613Z,5.59
2019-01-19T11:05:28.593Z,6.09
2019-01-19T11:06:28.927Z,7.19
2019-01-19T11:07:28.573Z,5.40
2019-01-19T11:08:28.560Z,5.59
2019-01-19T11:09:28.545Z,8.39
2019-01-19T11:10:28.536Z,5.00
2019-01-19T11:11:28.555Z,6.90
2019-01-19T11:12:28.552Z,6.19
2019-01-19T11:13:28.508Z,7.40
2019-01-19T11:14:28.492Z,5.00
2019-01-19T11:15:28.502Z,6.80
2019-01-19T11:16:28.475Z,5.09
2019-01-19T11:17:28.464Z,5.80
2019-01-19T11:18:28.456Z,6.50
2019-01-19T11:19:28.442Z,5.90
2019-01-19T11:20:28.443Z,5.59
2019-01-19T11:21:28.420Z,6.19
2019-01-19T11:22:28.415Z,7.80
2019-01-19T11:23:28.398Z,6.09
2019-01-19T11:24:28.385Z,7.50
2019-01-19T11:25:28.376Z,5.30
2019-01-19T11:26:28.397Z,5.00
2019-01-19T11:27:28.361Z,8.10
2019-01-19T11:28:28.351Z,5.00
2019-01-19T11:29:28.357Z,7.50
2019-01-19T11:30:28.333Z,7.19
2019-01-19T11:31:28.310Z,6.69
2019-01-19T11:32:29.371Z,5.19
2019-01-19T11:33:28.339Z,4.50
2019-01-19T11:34:28.282Z,5.90
2019-01-19T11:35:28.273Z,4.59
2019-01-19T11:36:28.262Z,5.80
2019-01-19T11:37:28.266Z,5.00
2019-01-19T11:38:28.256Z,9.50
2019-01-19T11:39:28.246Z,6.00
2019-01-19T11:40:28.239Z,5.80
2019-01-19T11:41:28.207Z,5.19
2019-01-19T11:42:28.251Z,5.90
2019-01-19T11:43:28.183Z,5.90
2019-01-19T11:44:28.189Z,5.50
2019-01-19T11:45:28.162Z,5.30
2019-01-19T11:46:28.156Z,6.30
2019-01-19T11:47:28.137Z,6.30
2019-01-19T11:48:28.149Z,6.40
2019-01-19T11:49:28.117Z,5.19
2019-01-19T11:50:28.157Z,4.69
2019-01-19T11:51:28.104Z,6.40
2019-01-19T11:52:28.104Z,7.09
2019-01-19T11:53:28.082Z,4.69
2019-01-19T11:54:28.091Z,4.80
2019-01-19T11:55:28.053Z,4.69
2019-01-19T11:56:28.063Z,5.59
2019-01-19T11:57:28.046Z,4.80
2019-01-19T11:58:28.041Z,5.09
2019-01-19T11:59:28.013Z,7.30
2019-01-19T12:00:27.997Z,3.90
2019-01-19T12:01:28.023Z,4.90
2019-01-19T12:02:27.979Z,4.19
2019-01-19T12:03:28.001Z,4.30
2019-01-19T12:04:27.955Z,5.59
2019-01-19T12:05:27.949Z,4.50
2019-01-19T12:06:27.941Z,4.19
2019-01-19T12:07:27.929Z,5.30
2019-01-19T12:08:27.937Z,6.80
2019-01-19T12:09:27.932Z,5.50
2019-01-19T12:10:27.891Z,4.30
2019-01-19T12:11:27.882Z,4.69
2019-01-19T12:12:27.879Z,3.79
2019-01-19T12:13:27.862Z,5.09
2019-01-19T12:14:27.850Z,4.19
2019-01-19T12:15:27.837Z,4.30
2019-01-19T12:16:27.938Z,5.00
2019-01-19T12:17:27.820Z,4.00
2019-01-19T12:18:27.871Z,4.19
2019-01-19T12:19:27.798Z,4.30
2019-01-19T12:20:27.779Z,5.19
2019-01-19T12:21:27.786Z,5.00
2019-01-19T12:22:27.761Z,5.30
2019-01-19T12:23:27.762Z,3.79
2019-01-19T12:24:27.740Z,4.59
2019-01-19T12:25:27.732Z,3.70
2019-01-19T12:26:27.726Z,5.69
2019-01-19T12:27:27.800Z,4.80
2019-01-19T12:28:27.692Z,4.19
2019-01-19T12:29:27.684Z,4.50
2019-01-19T12:30:27.672Z,4.69
2019-01-19T12:31:27.675Z,5.09
2019-01-19T12:32:27.649Z,5.40
2019-01-19T12:33:27.656Z,4.40
2019-01-19T12:34:27.659Z,4.80
2019-01-19T12:35:27.620Z,6.00
2019-01-19T12:36:27.604Z,4.09
2019-01-19T12:37:27.607Z,5.50
2019-01-19T12:38:27.588Z,4.80
2019-01-19T12:39:28.000Z,8.00
2019-01-19T12:40:27.571Z,4.69
2019-01-19T12:41:27.550Z,5.69
2019-01-19T12:42:27.543Z,4.19
2019-01-19T12:43:27.534Z,4.69
2019-01-19T12:44:27.533Z,3.79
2019-01-19T12:45:27.517Z,3.90
2019-01-19T12:46:27.502Z,4.80
2019-01-19T12:47:27.498Z,4.80
2019-01-19T12:48:27.475Z,5.09
2019-01-19T12:49:27.489Z,4.50
2019-01-19T12:50:28.611Z,4.19
2019-01-19T12:51:27.448Z,3.79
2019-01-19T12:52:27.430Z,4.40
2019-01-19T12:53:27.423Z,4.09
2019-01-19T12:54:27.411Z,4.69
2019-01-19T12:55:27.427Z,4.69
2019-01-19T12:56:27.434Z,4.59
2019-01-19T12:57:27.384Z,3.90
2019-01-19T12:58:27.513Z,3.90
2019-01-19T12:59:27.360Z,4.19
2019-01-19T13:00:27.348Z,4.00
2019-01-19T13:01:27.342Z,6.19
2019-01-19T13:02:27.322Z,4.09
2019-01-19T13:03:27.389Z,4.00
2019-01-19T13:04:27.300Z,4.30
2019-01-19T13:05:27.289Z,4.19
2019-01-19T13:06:27.279Z,5.40
2019-01-19T13:07:27.268Z,4.80
2019-01-19T13:08:34.188Z,4.30
2019-01-19T13:09:28.245Z,4.09
2019-01-19T13:10:27.251Z,3.79
2019-01-19T13:11:27.228Z,4.19
2019-01-19T13:12:27.213Z,3.70
2019-01-19T13:13:27.297Z,3.79
2019-01-19T13:14:27.212Z,5.19
2019-01-19T13:15:27.183Z,4.30
2019-01-19T13:16:27.174Z,3.79
2019-01-19T13:17:27.164Z,4.30
2019-01-19T13:18:27.237Z,6.19
2019-01-19T13:19:27.177Z,5.59
2019-01-19T13:20:27.168Z,5.00
2019-01-19T13:21:27.122Z,4.30
2019-01-19T13:22:27.139Z,6.40
2019-01-19T13:23:27.097Z,4.80
2019-01-19T13:24:27.086Z,4.00
2019-01-19T13:25:27.114Z,5.00
2019-01-19T13:26:27.079Z,4.19
2019-01-19T13:27:27.063Z,3.79
2019-01-19T13:28:27.036Z,5.00
2019-01-19T13:29:27.028Z,4.40
2019-01-19T13:30:27.019Z,4.59
2019-01-19T13:31:27.156Z,4.90
2019-01-19T13:32:27.035Z,5.09
2019-01-19T13:33:26.989Z,4.09
2019-01-19T13:34:26.981Z,3.40
2019-01-19T13:35:27.015Z,6.00
2019-01-19T13:36:26.953Z,3.70
2019-01-19T13:37:26.948Z,3.70
2019-01-19T13:38:26.984Z,4.09
2019-01-19T13:39:26.936Z,4.19
2019-01-19T13:40:26.919Z,4.50
2019-01-19T13:41:26.897Z,4.80
2019-01-19T13:42:26.943Z,5.50
2019-01-19T13:43:26.882Z,3.90
2019-01-19T13:44:26.873Z,4.59
2019-01-19T13:45:26.905Z,3.90
2019-01-19T13:46:26.847Z,4.30
2019-01-19T13:47:26.835Z,4.59
2019-01-19T13:48:26.821Z,5.19
2019-01-19T13:49:26.814Z,4.09
2019-01-19T13:50:26.801Z,4.69
2019-01-19T13:51:26.798Z,4.90
2019-01-19T13:52:26.795Z,4.30
2019-01-19T13:53:26.779Z,4.50
2019-01-19T13:54:26.770Z,3.70
2019-01-19T13:55:26.744Z,3.70
2019-01-19T13:56:26.758Z,3.59
2019-01-19T13:57:26.725Z,3.70
2019-01-19T13:58:26.713Z,4.19
2019-01-19T13:59:26.724Z,4.50
2019-01-19T14:00:26.694Z,3.70
2019-01-19T14:01:26.678Z,5.50
2019-01-19T14:02:26.677Z,4.00
2019-01-19T14:03:26.662Z,3.79
2019-01-19T14:04:26.741Z,3.79
2019-01-19T14:05:26.693Z,3.79
2019-01-19T14:06:26.630Z,5.09
2019-01-19T14:07:26.632Z,3.90
2019-01-19T14:08:26.604Z,3.90
2019-01-19T14:09:26.609Z,4.30
2019-01-19T14:10:26.588Z,3.59
2019-01-19T14:11:26.575Z,5.09
2019-01-19T14:12:26.576Z,4.00
2019-01-19T14:13:26.547Z,5.69
2019-01-19T14:14:26.541Z,4.19
2019-01-19T14:15:26.529Z,3.79
2019-01-19T14:16:26.522Z,3.20
2019-01-19T14:17:26.506Z,3.59
2019-01-19T14:18:26.521Z,5.09
2019-01-19T14:19:26.489Z,3.79
2019-01-19T14:20:26.481Z,4.80
2019-01-19T14:21:26.469Z,3.50
2019-01-19T14:22:26.464Z,4.90
2019-01-19T14:23:26.439Z,3.29
2019-01-19T14:24:26.434Z,4.50
2019-01-19T14:25:26.431Z,3.09
2019-01-19T14:26:26.434Z,3.50
2019-01-19T14:27:26.399Z,4.19
2019-01-19T14:28:26.386Z,3.50
2019-01-19T14:29:26.404Z,4.19
2019-01-19T14:30:26.379Z,4.90
2019-01-19T14:31:26.356Z,3.79
2019-01-19T14:32:26.343Z,3.90
2019-01-19T14:33:26.335Z,3.90
2019-01-19T14:34:26.327Z,3.20
2019-01-19T14:35:26.316Z,3.59
2019-01-19T14:36:26.301Z,3.29
2019-01-19T14:37:26.331Z,3.59
2019-01-19T14:38:26.295Z,4.19
2019-01-19T14:39:26.285Z,3.40
2019-01-19T14:40:26.260Z,3.29
2019-01-19T14:41:26.263Z,3.59
2019-01-19T14:42:26.244Z,5.69
2019-01-19T14:43:26.231Z,3.29
2019-01-19T14:44:26.348Z,3.50
2019-01-19T14:45:26.204Z,4.69
2019-01-19T14:46:26.198Z,4.19
2019-01-19T14:47:26.228Z,4.00
2019-01-19T14:48:26.171Z,3.50
2019-01-19T14:49:26.184Z,3.40
2019-01-19T14:50:26.151Z,3.90
2019-01-19T14:51:26.164Z,3.59
2019-01-19T14:52:26.162Z,4.09
2019-01-19T14:53:26.139Z,3.70
2019-01-19T14:54:26.113Z,3.50
2019-01-19T14:55:26.096Z,3.70
2019-01-19T14:56:26.085Z,4.50
2019-01-19T14:57:26.083Z,4.30
2019-01-19T14:58:26.065Z,3.29
2019-01-19T14:59:26.052Z,4.09
2019-01-19T15:00:26.041Z,3.40
2019-01-19T15:01:26.046Z,3.00
2019-01-19T15:02:26.024Z,3.50
2019-01-19T15:03:26.014Z,3.50
2019-01-19T15:04:26.003Z,3.50
2019-01-19T15:05:25.997Z,3.50
2019-01-19T15:06:25.981Z,4.80
2019-01-19T15:07:25.975Z,4.19
2019-01-19T15:08:25.973Z,3.00
2019-01-19T15:09:25.951Z,3.09
2019-01-19T15:10:25.957Z,4.40
2019-01-19T15:11:26.007Z,5.80
2019-01-19T15:12:25.931Z,4.40
2019-01-19T15:13:25.970Z,3.79
2019-01-19T15:14:25.896Z,3.29
2019-01-19T15:15:25.893Z,3.20
2019-01-19T15:16:25.898Z,4.90
2019-01-19T15:17:25.863Z,3.00
2019-01-19T15:18:25.914Z,3.20
2019-01-19T15:19:25.849Z,3.29
2019-01-19T15:20:25.832Z,3.59
2019-01-19T15:21:25.848Z,4.19
2019-01-19T15:22:25.810Z,4.50
2019-01-19T15:23:25.800Z,4.69
2019-01-19T15:24:25.807Z,3.29
2019-01-19T15:25:25.781Z,4.09
2019-01-19T15:26:25.773Z,3.90
2019-01-19T15:27:25.761Z,3.40
2019-01-19T15:28:25.877Z,3.90
2019-01-19T15:29:25.743Z,4.19
2019-01-19T15:30:25.786Z,4.40
2019-01-19T15:31:25.724Z,3.59
2019-01-19T15:32:25.721Z,3.79
2019-01-19T15:33:25.702Z,3.79
2019-01-19T15:34:25.690Z,4.69
2019-01-19T15:35:25.678Z,4.00
2019-01-19T15:36:25.666Z,6.59
2019-01-19T15:37:25.660Z,5.09
2019-01-19T15:38:25.657Z,4.40
2019-01-19T15:39:25.634Z,3.59
2019-01-19T15:40:25.627Z,3.79
2019-01-19T15:41:25.615Z,4.19
2019-01-19T15:42:25.621Z,5.69
2019-01-19T15:43:25.594Z,5.09
2019-01-19T15:44:25.585Z,4.00
2019-01-19T15:45:25.576Z,3.59
2019-01-19T15:46:25.572Z,3.70
2019-01-19T15:47:25.553Z,3.79
2019-01-19T15:48:25.595Z,4.50
2019-01-19T15:49:25.531Z,3.50
2019-01-19T15:50:25.577Z,5.80
2019-01-19T15:51:25.533Z,3.90
2019-01-19T15:52:25.499Z,6.19
2019-01-19T16:16:50.888Z,6.59
2019-01-19T16:19:50.873Z,4.09
2019-01-19T16:20:50.861Z,8.19
2019-01-19T16:21:50.846Z,6.00
2019-01-19T16:22:50.824Z,7.69
2019-01-19T16:23:50.816Z,5.59
2019-01-19T16:25:50.808Z,8.69
2019-01-19T16:26:50.813Z,8.00
2019-01-19T16:27:50.774Z,7.69
2019-01-19T16:31:50.739Z,9.50
2019-01-19T21:43:47.482Z,9.89
2019-01-19T22:11:47.158Z,8.30
